createdAt,value
2016-03-02T00:00:45.746Z,67.65
2016-03-02T00:01:45.765Z,68.32
2016-03-02T00:02:45.768Z,68.32
2016-03-02T00:03:45.786Z,68.23
2016-03-02T00:04:45.804Z,68.13
2016-03-02T00:05:45.823Z,68.23
2016-03-02T00:06:45.842Z,68.7
2016-03-02T00:07:45.844Z,68.23
2016-03-02T00:08:45.862Z,68.23
2016-03-02T00:09:45.864Z,68.7
2016-03-02T00:10:45.883Z,68.41
2016-03-02T00:11:45.900Z,68.23
2016-03-02T00:12:45.920Z,68.32
2016-03-02T00:13:45.922Z,68.23
2016-03-02T00:14:45.800Z,68.32
2016-03-02T00:15:45.959Z,68.32
2016-03-02T00:16:45.977Z,68.13
2016-03-02T00:17:45.996Z,68.13
2016-03-02T00:18:46.014Z,68.79
2016-03-02T00:19:46.033Z,67.85
2016-03-02T00:20:46.035Z,68.6
2016-03-02T00:21:46.052Z,68.32
2016-03-02T00:22:46.072Z,68.41
2016-03-02T00:23:46.074Z,68.51
2016-03-02T00:24:46.093Z,68.32
2016-03-02T00:25:46.111Z,68.32
2016-03-02T00:26:46.129Z,67.94
2016-03-02T00:27:46.148Z,67.94
2016-03-02T00:28:46.165Z,68.51
2016-03-02T00:29:46.169Z,68.23
2016-03-02T00:30:46.171Z,68.41
2016-03-02T00:31:46.205Z,68.32
2016-03-02T00:32:46.207Z,68.41
2016-03-02T00:33:46.226Z,68.41
2016-03-02T00:34:46.229Z,68.6
2016-03-02T00:35:46.248Z,68.23
2016-03-02T00:36:46.282Z,68.32
2016-03-02T00:37:46.300Z,68.04
2016-03-02T00:38:46.302Z,68.32
2016-03-02T00:39:46.321Z,68.32
2016-03-02T00:40:46.323Z,68.32
2016-03-02T00:41:46.342Z,68.13
2016-03-02T00:42:46.359Z,68.04
2016-03-02T00:43:46.378Z,68.41
2016-03-02T00:44:46.396Z,68.6
2016-03-02T00:45:46.399Z,68.51
2016-03-02T00:46:46.433Z,68.13
2016-03-02T00:47:46.436Z,68.41
2016-03-02T00:48:46.469Z,68.32
2016-03-02T00:49:46.457Z,68.41
2016-03-02T00:50:46.491Z,68.32
2016-03-02T00:51:46.493Z,68.32
2016-03-02T00:52:46.511Z,68.41
2016-03-02T00:53:46.513Z,68.41
2016-03-02T00:54:46.549Z,68.32
2016-03-02T00:55:46.551Z,68.32
2016-03-02T00:56:46.569Z,68.32
2016-03-02T00:57:46.572Z,68.32
2016-03-02T00:58:46.606Z,68.41
2016-03-02T00:59:46.609Z,68.04
2016-03-02T01:00:46.627Z,68.41
2016-03-02T01:01:46.646Z,68.41
2016-03-02T01:02:46.663Z,68.32
2016-03-02T01:03:46.665Z,68.41
2016-03-02T01:04:46.685Z,68.41
2016-03-02T01:05:46.703Z,68.32
2016-03-02T01:06:46.737Z,68.41
2016-03-02T01:07:46.723Z,68.13
2016-03-02T01:08:46.742Z,68.41
2016-03-02T01:09:46.745Z,68.32
2016-03-02T01:10:46.763Z,68.13
2016-03-02T01:11:46.782Z,68.32
2016-03-02T01:12:46.800Z,68.7
2016-03-02T01:13:46.817Z,68.41
2016-03-02T01:14:46.836Z,68.41
2016-03-02T01:15:46.855Z,68.41
2016-03-02T01:16:46.858Z,68.41
2016-03-02T01:17:46.892Z,68.23
2016-03-02T01:18:46.894Z,68.23
2016-03-02T01:19:46.913Z,68.32
2016-03-02T01:20:46.915Z,68.32
2016-03-02T01:21:46.933Z,68.13
2016-03-02T01:22:46.952Z,69.08
2016-03-02T01:23:46.969Z,68.13
2016-03-02T01:24:46.972Z,69.17
2016-03-02T01:25:46.991Z,68.51
2016-03-02T01:26:47.009Z,68.6
2016-03-02T01:27:47.012Z,68.6
2016-03-02T01:28:47.030Z,68.7
2016-03-02T01:29:47.049Z,68.23
2016-03-02T01:30:47.067Z,68.32
2016-03-02T01:31:47.085Z,68.51
2016-03-02T01:32:47.104Z,68.7
2016-03-02T01:33:47.106Z,68.32
2016-03-02T01:34:47.124Z,68.32
2016-03-02T01:35:47.127Z,68.32
2016-03-02T01:36:47.162Z,68.32
2016-03-02T01:37:47.164Z,69.36
2016-03-02T01:38:47.182Z,69.27
2016-03-02T01:39:47.201Z,68.32
2016-03-02T01:40:47.203Z,68.23
2016-03-02T01:41:47.222Z,69.36
2016-03-02T01:42:47.240Z,68.32
2016-03-02T01:43:47.258Z,68.32
2016-03-02T01:44:47.276Z,68.51
2016-03-02T01:45:47.294Z,68.41
2016-03-02T01:46:47.298Z,68.7
2016-03-02T01:47:47.316Z,68.79
2016-03-02T01:48:47.334Z,69.17
2016-03-02T01:49:47.337Z,68.7
2016-03-02T01:50:47.371Z,69.27
2016-03-02T01:51:47.373Z,68.23
2016-03-02T01:52:47.392Z,68.32
2016-03-02T01:53:47.410Z,68.41
2016-03-02T01:54:47.428Z,68.98
2016-03-02T01:55:47.446Z,68.51
2016-03-02T01:56:47.465Z,68.98
2016-03-02T01:57:47.468Z,69.17
2016-03-02T01:58:47.470Z,69.17
2016-03-02T01:59:47.489Z,68.98
2016-03-02T02:00:47.507Z,69.08
2016-03-02T02:01:47.525Z,69.17
2016-03-02T02:02:47.528Z,69.17
2016-03-02T02:03:47.546Z,69.17
2016-03-02T02:04:47.565Z,69.17
2016-03-02T02:05:47.603Z,68.6
2016-03-02T02:06:47.595Z,69.17
2016-03-02T02:07:47.614Z,68.6
2016-03-02T02:08:47.647Z,68.79
2016-03-02T02:09:47.634Z,68.98
2016-03-02T02:10:47.653Z,68.98
2016-03-02T02:11:47.671Z,68.98
2016-03-02T02:12:47.674Z,68.89
2016-03-02T02:13:47.692Z,68.89
2016-03-02T02:14:47.711Z,68.89
2016-03-02T02:15:47.729Z,69.17
2016-03-02T02:16:47.747Z,69.08
2016-03-02T02:17:47.766Z,68.98
2016-03-02T02:18:47.768Z,69.08
2016-03-02T02:19:47.802Z,69.08
2016-03-02T02:20:47.789Z,68.89
2016-03-02T02:21:47.808Z,68.89
2016-03-02T02:22:47.826Z,68.98
2016-03-02T02:23:47.844Z,69.08
2016-03-02T02:24:47.847Z,69.08
2016-03-02T02:25:47.865Z,69.08
2016-03-02T02:26:47.884Z,68.89
2016-03-02T02:27:47.902Z,68.89
2016-03-02T02:28:47.920Z,69.08
2016-03-02T02:29:47.923Z,68.98
2016-03-02T02:30:47.940Z,69.17
2016-03-02T02:31:47.960Z,68.7
2016-03-02T02:32:47.978Z,68.89
2016-03-02T02:33:47.981Z,68.89
2016-03-02T02:34:48.015Z,69.08
2016-03-02T02:35:48.017Z,69.17
2016-03-02T02:36:48.035Z,68.98
2016-03-02T02:37:48.054Z,68.98
2016-03-02T02:38:48.072Z,68.98
2016-03-02T02:39:48.075Z,68.79
2016-03-02T02:40:48.092Z,68.98
2016-03-02T02:41:48.111Z,69.08
2016-03-02T02:42:48.114Z,69.08
2016-03-02T02:43:47.975Z,68.98
2016-03-02T02:44:48.151Z,69.08
2016-03-02T02:45:48.169Z,69.08
2016-03-02T02:46:48.171Z,69.08
2016-03-02T02:47:48.190Z,69.08
2016-03-02T02:48:48.208Z,68.7
2016-03-02T02:49:48.227Z,68.89
2016-03-02T02:50:48.244Z,68.7
2016-03-02T02:51:48.263Z,68.98
2016-03-02T02:52:48.266Z,68.6
2016-03-02T02:53:48.284Z,69.74
2016-03-02T02:54:48.303Z,68.79
2016-03-02T02:55:48.321Z,68.89
2016-03-02T02:56:48.324Z,68.7
2016-03-02T02:57:48.342Z,69.74
2016-03-02T02:58:48.360Z,69.08
2016-03-02T02:59:48.363Z,68.79
2016-03-02T03:00:48.396Z,68.79
2016-03-02T03:01:48.399Z,68.89
2016-03-02T03:02:48.418Z,69.17
2016-03-02T03:03:48.436Z,68.98
2016-03-02T03:04:48.454Z,69.36
2016-03-02T03:05:48.457Z,68.89
2016-03-02T03:06:48.476Z,69.27
2016-03-02T03:07:48.494Z,69.08
2016-03-02T03:08:48.512Z,68.98
2016-03-02T03:09:48.515Z,68.79
2016-03-02T03:10:48.533Z,69.74
2016-03-02T03:11:48.550Z,68.89
2016-03-02T03:12:48.570Z,68.7
2016-03-02T03:13:48.588Z,68.79
2016-03-02T03:14:48.591Z,68.79
2016-03-02T03:15:48.625Z,68.7
2016-03-02T03:16:48.627Z,68.89
2016-03-02T03:17:48.646Z,68.7
2016-03-02T03:18:48.648Z,68.98
2016-03-02T03:19:48.714Z,69.08
2016-03-02T03:20:48.685Z,68.98
2016-03-02T03:21:48.702Z,68.89
2016-03-02T03:22:48.705Z,68.98
2016-03-02T03:23:48.740Z,68.89
2016-03-02T03:24:48.743Z,68.7
2016-03-02T03:25:48.777Z,68.7
2016-03-02T03:26:48.764Z,69.08
2016-03-02T03:27:48.798Z,68.89
2016-03-02T03:28:48.800Z,69.08
2016-03-02T03:29:48.835Z,68.89
2016-03-02T03:30:48.837Z,69.08
2016-03-02T03:31:48.855Z,68.41
2016-03-02T03:32:48.857Z,69.17
2016-03-02T03:33:48.876Z,68.79
2016-03-02T03:34:48.895Z,68.98
2016-03-02T03:35:48.912Z,68.79
2016-03-02T03:36:48.916Z,68.79
2016-03-02T03:37:48.934Z,68.89
2016-03-02T03:38:48.952Z,68.98
2016-03-02T03:39:48.814Z,68.98
2016-03-02T03:40:48.989Z,68.98
2016-03-02T03:41:49.006Z,68.79
2016-03-02T03:42:49.009Z,68.79
2016-03-02T03:43:49.028Z,68.79
2016-03-02T03:44:49.031Z,69.08
2016-03-02T03:45:49.049Z,69.17
2016-03-02T03:46:49.067Z,68.7
2016-03-02T03:47:49.102Z,68.41
2016-03-02T03:48:49.119Z,69.27
2016-03-02T03:49:49.107Z,68.32
2016-03-02T03:50:49.124Z,68.32
2016-03-02T03:51:49.158Z,68.23
2016-03-02T03:52:49.146Z,68.23
2016-03-02T03:53:49.163Z,69.27
2016-03-02T03:54:49.183Z,68.51
2016-03-02T03:55:49.201Z,68.23
2016-03-02T03:56:49.219Z,68.04
2016-03-02T03:57:49.238Z,68.51
2016-03-02T03:58:49.240Z,68.6
2016-03-02T03:59:49.259Z,68.7
2016-03-02T04:00:49.277Z,68.6
2016-03-02T04:01:49.280Z,68.6
2016-03-02T04:02:49.298Z,68.23
2016-03-02T04:03:49.159Z,68.41
2016-03-02T04:04:49.335Z,68.32
2016-03-02T04:05:49.353Z,68.13
2016-03-02T04:06:49.356Z,68.04
2016-03-02T04:07:49.373Z,69.08
2016-03-02T04:08:49.392Z,68.32
2016-03-02T04:09:49.411Z,68.32
2016-03-02T04:10:49.414Z,68.32
2016-03-02T04:11:49.432Z,68.41
2016-03-02T04:12:49.450Z,68.32
2016-03-02T04:13:49.467Z,68.32
2016-03-02T04:14:49.486Z,68.32
2016-03-02T04:15:49.505Z,68.79
2016-03-02T04:16:49.507Z,68.23
2016-03-02T04:17:49.526Z,69.08
2016-03-02T04:18:49.544Z,68.13
2016-03-02T04:19:49.546Z,68.23
2016-03-02T04:20:49.565Z,68.13
2016-03-02T04:21:49.583Z,69.08
2016-03-02T04:22:49.602Z,68.51
2016-03-02T04:23:49.619Z,68.13
2016-03-02T04:24:49.622Z,68.13
2016-03-02T04:25:49.641Z,69.08
2016-03-02T04:26:49.659Z,68.13
2016-03-02T04:27:49.678Z,68.23
2016-03-02T04:28:49.680Z,68.23
2016-03-02T04:29:49.699Z,68.32
2016-03-02T04:30:49.717Z,68.23
2016-03-02T04:31:49.735Z,68.32
2016-03-02T04:32:49.754Z,69.08
2016-03-02T04:33:49.771Z,68.13
2016-03-02T04:34:49.774Z,68.13
2016-03-02T04:35:49.809Z,69.08
2016-03-02T04:36:49.811Z,68.04
2016-03-02T04:37:49.814Z,67.94
2016-03-02T04:38:49.832Z,68.32
2016-03-02T04:39:49.851Z,67.94
2016-03-02T04:40:49.869Z,68.13
2016-03-02T04:41:49.872Z,68.13
2016-03-02T04:42:49.890Z,68.32
2016-03-02T04:43:49.924Z,69.08
2016-03-02T04:44:49.926Z,67.94
2016-03-02T04:45:49.945Z,68.32
2016-03-02T04:46:49.963Z,68.79
2016-03-02T04:47:49.966Z,68.41
2016-03-02T04:48:49.984Z,68.32
2016-03-02T04:49:50.002Z,68.79
2016-03-02T04:50:50.021Z,68.32
2016-03-02T04:51:50.023Z,68.41
2016-03-02T04:52:50.042Z,68.32
2016-03-02T04:53:50.060Z,68.32
2016-03-02T04:54:50.062Z,68.32
2016-03-02T04:55:50.097Z,68.32
2016-03-02T04:56:50.099Z,68.32
2016-03-02T04:57:50.118Z,68.7
2016-03-02T04:58:50.136Z,68.13
2016-03-02T04:59:50.154Z,67.94
2016-03-02T05:00:50.157Z,68.23
2016-03-02T05:01:50.190Z,68.41
2016-03-02T05:02:50.194Z,68.32
2016-03-02T05:03:50.212Z,68.79
2016-03-02T05:04:50.215Z,68.32
2016-03-02T05:05:50.264Z,68.41
2016-03-02T05:06:50.251Z,68.51
2016-03-02T05:07:50.270Z,68.32
2016-03-02T05:08:50.287Z,68.41
2016-03-02T05:09:50.291Z,68.23
2016-03-02T05:10:50.309Z,68.79
2016-03-02T05:11:50.328Z,68.32
2016-03-02T05:12:50.346Z,68.32
2016-03-02T05:13:50.348Z,68.13
2016-03-02T05:14:50.367Z,68.41
2016-03-02T05:15:50.384Z,68.41
2016-03-02T05:16:50.403Z,68.41
2016-03-02T05:17:50.421Z,68.41
2016-03-02T05:18:50.424Z,68.41
2016-03-02T05:19:50.458Z,68.41
2016-03-02T05:20:50.461Z,68.32
2016-03-02T05:21:50.479Z,68.13
2016-03-02T05:22:50.482Z,68.32
2016-03-02T05:23:50.500Z,68.13
2016-03-02T05:24:50.534Z,68.32
2016-03-02T05:25:50.536Z,68.23
2016-03-02T05:26:50.555Z,68.32
2016-03-02T05:27:50.558Z,68.41
2016-03-02T05:28:50.576Z,68.32
2016-03-02T05:29:50.594Z,68.04
2016-03-02T05:30:50.597Z,68.6
2016-03-02T05:31:50.615Z,68.32
2016-03-02T05:32:50.634Z,68.41
2016-03-02T05:33:50.652Z,68.51
2016-03-02T05:34:50.671Z,68.32
2016-03-02T05:35:50.688Z,68.04
2016-03-02T05:36:50.706Z,68.41
2016-03-02T05:37:50.710Z,68.41
2016-03-02T05:38:50.728Z,68.32
2016-03-02T05:39:50.746Z,68.51
2016-03-02T05:40:50.749Z,68.79
2016-03-02T05:41:50.767Z,68.51
2016-03-02T05:42:50.786Z,68.79
2016-03-02T05:43:50.804Z,68.79
2016-03-02T05:44:50.822Z,68.23
2016-03-02T05:45:50.825Z,68.41
2016-03-02T05:46:50.842Z,68.41
2016-03-02T05:47:50.861Z,67.94
2016-03-02T05:48:50.880Z,68.32
2016-03-02T05:49:50.882Z,68.41
2016-03-02T05:50:50.901Z,68.13
2016-03-02T05:51:50.919Z,68.23
2016-03-02T05:52:50.938Z,68.79
2016-03-02T05:53:50.941Z,68.32
2016-03-02T05:54:50.958Z,68.51
2016-03-02T05:55:50.977Z,68.32
2016-03-02T05:56:50.994Z,68.32
2016-03-02T05:57:51.013Z,68.79
2016-03-02T05:58:51.032Z,68.6
2016-03-02T05:59:51.049Z,68.51
2016-03-02T06:00:51.053Z,68.41
2016-03-02T06:01:51.071Z,67.97
2016-03-02T06:02:51.073Z,68.32
2016-03-02T06:03:51.092Z,68.32
2016-03-02T06:04:51.126Z,68.26
2016-03-02T06:05:51.082Z,68.44
2016-03-02T06:06:51.146Z,68.26
2016-03-02T06:07:51.149Z,68.64
2016-03-02T06:08:51.168Z,68.35
2016-03-02T06:09:51.186Z,68.16
2016-03-02T06:10:51.221Z,68.07
2016-03-02T06:11:51.207Z,67.69
2016-03-02T06:12:51.242Z,68.26
2016-03-02T06:13:51.244Z,68.07
2016-03-02T06:14:51.262Z,67.97
2016-03-02T06:15:51.281Z,68.44
2016-03-02T06:16:51.298Z,67.88
2016-03-02T06:17:51.301Z,67.88
2016-03-02T06:18:51.320Z,68.16
2016-03-02T06:19:51.338Z,68.35
2016-03-02T06:20:51.356Z,68.35
2016-03-02T06:21:51.375Z,68.16
2016-03-02T06:22:51.393Z,67.97
2016-03-02T06:23:51.396Z,68.44
2016-03-02T06:24:51.414Z,67.69
2016-03-02T06:25:51.432Z,68.26
2016-03-02T06:26:51.435Z,67.79
2016-03-02T06:27:51.452Z,68.16
2016-03-02T06:28:51.472Z,67.79
2016-03-02T06:29:51.490Z,68.07
2016-03-02T06:30:51.508Z,68.07
2016-03-02T06:31:51.511Z,67.88
2016-03-02T06:32:51.529Z,67.79
2016-03-02T06:33:51.548Z,67.69
2016-03-02T06:34:51.676Z,67.97
2016-03-02T06:35:51.584Z,67.88
2016-03-02T06:36:51.587Z,67.5
2016-03-02T06:37:51.793Z,67.88
2016-03-02T06:38:51.624Z,68.16
2016-03-02T06:39:51.642Z,68.07
2016-03-02T06:40:51.660Z,68.16
2016-03-02T06:41:51.678Z,67.4
2016-03-02T06:42:51.682Z,67.31
2016-03-02T06:43:51.700Z,67.31
2016-03-02T06:44:51.717Z,67.31
2016-03-02T06:45:51.720Z,67.97
2016-03-02T06:46:51.739Z,67.5
2016-03-02T06:47:51.757Z,67.79
2016-03-02T06:48:51.776Z,67.5
2016-03-02T06:49:51.794Z,67.5
2016-03-02T06:50:51.811Z,67.31
2016-03-02T06:51:51.814Z,67.59
2016-03-02T06:52:51.833Z,67.31
2016-03-02T06:53:51.852Z,68.35
2016-03-02T06:54:51.855Z,67.4
2016-03-02T06:55:51.903Z,67.21
2016-03-02T06:56:51.891Z,67.4
2016-03-02T06:57:51.908Z,68.26
2016-03-02T06:58:51.928Z,67.59
2016-03-02T06:59:51.930Z,68.16
2016-03-02T07:00:51.949Z,67.31
2016-03-02T07:01:51.982Z,68.35
2016-03-02T07:02:52.064Z,67.31
2016-03-02T07:03:52.002Z,67.21
2016-03-02T07:04:52.004Z,67.31
2016-03-02T07:05:52.021Z,67.88
2016-03-02T07:06:52.055Z,67.21
2016-03-02T07:07:52.058Z,67.79
2016-03-02T07:08:52.077Z,67.21
2016-03-02T07:09:52.096Z,67.79
2016-03-02T07:10:52.098Z,67.02
2016-03-02T07:11:52.116Z,67.4
2016-03-02T07:12:52.150Z,67.97
2016-03-02T07:13:52.232Z,67.21
2016-03-02T07:14:52.187Z,68.26
2016-03-02T07:15:52.189Z,68.07
2016-03-02T07:16:52.193Z,68.16
2016-03-02T07:17:52.210Z,68.16
2016-03-02T07:18:52.229Z,68.07
2016-03-02T07:19:52.247Z,67.4
2016-03-02T07:20:52.093Z,67.4
2016-03-02T07:21:52.268Z,67.69
2016-03-02T07:22:52.286Z,67.21
2016-03-02T07:23:52.445Z,67.88
2016-03-02T07:24:52.339Z,67.59
2016-03-02T07:25:52.342Z,67.21
2016-03-02T07:26:52.344Z,67.59
2016-03-02T07:27:52.363Z,67.4
2016-03-02T07:28:52.381Z,67.44
2016-03-02T07:29:52.384Z,67.4
2016-03-02T07:30:52.403Z,67.31
2016-03-02T07:31:52.420Z,67.53
2016-03-02T07:32:52.439Z,67.63
2016-03-02T07:33:52.457Z,67.82
2016-03-02T07:34:52.461Z,67.63
2016-03-02T07:35:52.479Z,67.53
2016-03-02T07:36:52.497Z,67.15
2016-03-02T07:37:52.515Z,67.63
2016-03-02T07:38:52.533Z,67.34
2016-03-02T07:39:52.552Z,67.63
2016-03-02T07:40:52.554Z,67.53
2016-03-02T07:41:52.572Z,67.72
2016-03-02T07:42:52.591Z,67.53
2016-03-02T07:43:52.609Z,67.44
2016-03-02T07:44:52.628Z,67.44
2016-03-02T07:45:52.630Z,67.34
2016-03-02T07:46:52.649Z,67.25
2016-03-02T07:47:52.666Z,67.53
2016-03-02T07:48:52.701Z,67.53
2016-03-02T07:49:52.704Z,67.53
2016-03-02T07:50:52.722Z,67.25
2016-03-02T07:51:52.740Z,67.53
2016-03-02T07:52:52.742Z,67.72
2016-03-02T07:53:52.761Z,67.72
2016-03-02T07:54:52.779Z,67.91
2016-03-02T07:55:52.797Z,67.25
2016-03-02T07:56:52.800Z,68.01
2016-03-02T07:57:52.818Z,67.34
2016-03-02T07:58:52.837Z,67.63
2016-03-02T07:59:52.855Z,67.72
2016-03-02T08:00:52.873Z,67.25
2016-03-02T08:01:52.892Z,67.53
2016-03-02T08:02:52.910Z,67.44
2016-03-02T08:03:52.913Z,67.34
2016-03-02T08:04:52.931Z,67.15
2016-03-02T08:05:52.950Z,67.53
2016-03-02T08:06:52.968Z,68.1
2016-03-02T08:07:52.986Z,68.19
2016-03-02T08:08:53.005Z,68.19
2016-03-02T08:09:53.008Z,67.53
2016-03-02T08:10:53.025Z,67.53
2016-03-02T08:11:53.044Z,67.63
2016-03-02T08:12:53.047Z,67.34
2016-03-02T08:13:53.081Z,67.44
2016-03-02T08:14:53.099Z,67.25
2016-03-02T08:15:53.101Z,67.44
2016-03-02T08:16:53.119Z,67.15
2016-03-02T08:17:53.138Z,67.34
2016-03-02T08:18:53.141Z,67.63
2016-03-02T08:19:53.160Z,67.53
2016-03-02T08:20:53.194Z,67.53
2016-03-02T08:21:53.196Z,67.53
2016-03-02T08:22:53.215Z,67.63
2016-03-02T08:23:53.232Z,67.82
2016-03-02T08:24:53.251Z,67.53
2016-03-02T08:25:53.268Z,67.63
2016-03-02T08:26:53.271Z,67.15
2016-03-02T08:27:53.290Z,67.63
2016-03-02T08:28:53.309Z,67.44
2016-03-02T08:29:53.327Z,67.82
2016-03-02T08:30:53.345Z,67.53
2016-03-02T08:31:53.348Z,67.44
2016-03-02T08:32:53.382Z,67.72
2016-03-02T08:33:53.384Z,67.82
2016-03-02T08:34:53.403Z,67.72
2016-03-02T08:35:53.264Z,67.44
2016-03-02T08:36:53.439Z,67.53
2016-03-02T08:37:53.448Z,67.44
2016-03-02T08:38:53.437Z,67.72
2016-03-02T08:39:53.455Z,67.44
2016-03-02T08:40:53.801Z,67.34
2016-03-02T08:41:53.446Z,67.44
2016-03-02T08:42:53.437Z,67.72
2016-03-02T08:43:53.465Z,67.72
2016-03-02T08:44:53.479Z,67.76
2016-03-02T08:45:53.491Z,66.8
2016-03-02T08:46:53.582Z,66.67
2016-03-02T08:47:53.504Z,66.58
2016-03-02T08:48:53.520Z,66.42
2016-03-02T08:49:53.536Z,66.71
2016-03-02T08:50:53.538Z,66.52
2016-03-02T08:51:53.554Z,66.9
2016-03-02T08:52:53.570Z,67
2016-03-02T08:53:53.588Z,67.19
2016-03-02T08:54:53.606Z,66.9
2016-03-02T08:55:53.623Z,66.9
2016-03-02T08:56:53.641Z,67
2016-03-02T08:57:53.643Z,66.9
2016-03-02T08:58:53.662Z,66.71
2016-03-02T08:59:53.696Z,66.52
2016-03-02T09:00:53.698Z,66.61
2016-03-02T09:01:53.716Z,66.61
2016-03-02T09:02:53.797Z,66.71
2016-03-02T09:03:53.753Z,66.42
2016-03-02T09:04:53.771Z,66.52
2016-03-02T09:05:53.618Z,66.61
2016-03-02T09:06:53.793Z,66.61
2016-03-02T09:07:53.811Z,66.52
2016-03-02T09:08:53.829Z,66.33
2016-03-02T09:09:53.848Z,66.52
2016-03-02T09:10:53.850Z,66.33
2016-03-02T09:11:53.884Z,66.24
2016-03-02T09:12:53.887Z,66.42
2016-03-02T09:13:53.905Z,66.42
2016-03-02T09:14:53.923Z,66.61
2016-03-02T09:15:53.942Z,66.71
2016-03-02T09:16:53.959Z,66.42
2016-03-02T09:17:53.979Z,66.36
2016-03-02T09:18:53.981Z,66.55
2016-03-02T09:19:54.000Z,66.24
2016-03-02T09:20:54.018Z,66.17
2016-03-02T09:21:54.036Z,66.61
2016-03-02T09:22:54.055Z,66.27
2016-03-02T09:23:54.072Z,66.55
2016-03-02T09:24:54.091Z,65.99
2016-03-02T09:25:54.094Z,66.17
2016-03-02T09:26:54.128Z,66.17
2016-03-02T09:27:54.146Z,65.89
2016-03-02T09:28:54.149Z,65.99
2016-03-02T09:29:54.167Z,65.7
2016-03-02T09:30:54.202Z,65.51
2016-03-02T09:31:54.219Z,65.32
2016-03-02T09:32:54.222Z,65.8
2016-03-02T09:33:54.240Z,65.8
2016-03-02T09:34:54.258Z,65.7
2016-03-02T09:35:54.277Z,65.7
2016-03-02T09:36:54.342Z,65.51
2016-03-02T09:37:54.314Z,65.41
2016-03-02T09:38:54.316Z,65.22
2016-03-02T09:39:54.351Z,64.65
2016-03-02T09:40:54.354Z,65.51
2016-03-02T09:41:54.387Z,64.84
2016-03-02T09:42:54.390Z,65.13
2016-03-02T09:43:54.407Z,65.25
2016-03-02T09:44:54.426Z,65.35
2016-03-02T09:45:54.428Z,65.25
2016-03-02T09:46:54.447Z,65.25
2016-03-02T09:47:54.465Z,65.35
2016-03-02T09:48:54.483Z,64.87
2016-03-02T09:49:54.517Z,64.97
2016-03-02T09:50:54.536Z,65.06
2016-03-02T09:51:54.554Z,64.97
2016-03-02T09:52:54.557Z,65.06
2016-03-02T09:53:54.559Z,65.06
2016-03-02T09:54:54.594Z,64.69
2016-03-02T09:55:54.596Z,64.69
2016-03-02T09:56:54.614Z,65.25
2016-03-02T09:57:54.632Z,64.4
2016-03-02T09:58:54.651Z,64.87
2016-03-02T09:59:54.669Z,65.45
2016-03-02T10:00:54.688Z,64.78
2016-03-02T10:01:54.705Z,64.34
2016-03-02T10:02:54.772Z,64.43
2016-03-02T10:03:54.743Z,64.24
2016-03-02T10:04:54.746Z,63.86
2016-03-02T10:05:54.795Z,64.43
2016-03-02T10:06:54.782Z,63.96
2016-03-02T10:07:54.816Z,64.15
2016-03-02T10:08:54.818Z,64.15
2016-03-02T10:09:54.853Z,64.05
2016-03-02T10:10:54.855Z,63.39
2016-03-02T10:11:54.874Z,63.76
2016-03-02T10:12:54.892Z,63.29
2016-03-02T10:13:54.910Z,63.01
2016-03-02T10:14:54.928Z,63.67
2016-03-02T10:15:54.947Z,63.48
2016-03-02T10:16:54.965Z,62.91
2016-03-02T10:17:54.967Z,62.72
2016-03-02T10:18:55.001Z,63.1
2016-03-02T10:19:55.004Z,62.62
2016-03-02T10:20:55.039Z,62.91
2016-03-02T10:21:55.057Z,62.53
2016-03-02T10:22:55.075Z,62.43
2016-03-02T10:23:55.078Z,62.72
2016-03-02T10:24:55.112Z,62.62
2016-03-02T10:25:55.145Z,62.46
2016-03-02T10:26:55.133Z,62.27
2016-03-02T10:27:55.150Z,62.27
2016-03-02T10:28:55.185Z,62.18
2016-03-02T10:29:55.188Z,61.9
2016-03-02T10:30:55.206Z,62.08
2016-03-02T10:31:55.225Z,61.9
2016-03-02T10:32:55.243Z,62.08
2016-03-02T10:33:55.261Z,61.9
2016-03-02T10:34:55.263Z,61.99
2016-03-02T10:35:55.297Z,61.51
2016-03-02T10:36:55.315Z,61.42
2016-03-02T10:37:55.319Z,61.7
2016-03-02T10:38:55.337Z,61.9
2016-03-02T10:39:55.371Z,61.42
2016-03-02T10:40:55.390Z,61.61
2016-03-02T10:41:55.393Z,61.22
2016-03-02T10:42:55.410Z,61.22
2016-03-02T10:43:55.444Z,61.04
2016-03-02T10:44:55.446Z,61.32
2016-03-02T10:45:55.465Z,61.22
2016-03-02T10:46:55.484Z,61.13
2016-03-02T10:47:55.501Z,61.04
2016-03-02T10:48:55.520Z,60.46
2016-03-02T10:49:55.539Z,60.94
2016-03-02T10:50:55.572Z,60.69
2016-03-02T10:51:55.575Z,60.88
2016-03-02T10:52:55.703Z,60.78
2016-03-02T10:53:55.611Z,60.97
2016-03-02T10:54:55.630Z,60.88
2016-03-02T10:55:55.805Z,61.16
2016-03-02T10:56:55.776Z,61.16
2016-03-02T10:57:55.795Z,61.07
2016-03-02T10:58:55.703Z,60.78
2016-03-02T10:59:55.722Z,60.21
2016-03-02T11:00:55.755Z,60.59
2016-03-02T11:01:55.758Z,60.59
2016-03-02T11:02:55.777Z,60.59
2016-03-02T11:03:55.794Z,60.21
2016-03-02T11:04:55.830Z,60.78
2016-03-02T11:05:55.832Z,60.59
2016-03-02T11:06:55.849Z,60.97
2016-03-02T11:07:55.884Z,60.4
2016-03-02T11:08:55.980Z,60.3
2016-03-02T11:09:55.920Z,60.3
2016-03-02T11:10:55.938Z,60.4
2016-03-02T11:11:56.035Z,60.49
2016-03-02T11:12:55.960Z,60.11
2016-03-02T11:13:55.978Z,60.21
2016-03-02T11:14:55.996Z,59.83
2016-03-02T11:15:56.015Z,60.02
2016-03-02T11:16:56.032Z,60.3
2016-03-02T11:17:56.067Z,59.92
2016-03-02T11:18:56.070Z,60.21
2016-03-02T11:19:56.088Z,60.21
2016-03-02T11:20:56.106Z,60.02
2016-03-02T11:21:55.968Z,60.02
2016-03-02T11:22:56.220Z,60.02
2016-03-02T11:23:56.223Z,60.21
2016-03-02T11:24:56.258Z,59.83
2016-03-02T11:25:56.198Z,60.02
2016-03-02T11:26:56.217Z,60.02
2016-03-02T11:27:56.250Z,59.92
2016-03-02T11:28:56.362Z,60.02
2016-03-02T11:29:56.286Z,60.21
2016-03-02T11:30:56.289Z,60.33
2016-03-02T11:31:56.323Z,59.86
2016-03-02T11:32:56.326Z,60.02
2016-03-02T11:33:56.407Z,59.76
2016-03-02T11:34:56.394Z,59.76
2016-03-02T11:35:56.397Z,59.64
2016-03-02T11:36:56.415Z,59.86
2016-03-02T11:37:56.433Z,59.67
2016-03-02T11:38:56.467Z,59.95
2016-03-02T11:39:56.611Z,59.76
2016-03-02T11:40:56.566Z,59.57
2016-03-02T11:41:56.506Z,59.48
2016-03-02T11:42:56.524Z,59.38
2016-03-02T11:43:56.637Z,59.57
2016-03-02T11:44:56.593Z,59.48
2016-03-02T11:45:56.658Z,59.48
2016-03-02T11:46:56.598Z,59.57
2016-03-02T11:47:56.616Z,59.28
2016-03-02T11:48:56.634Z,59.38
2016-03-02T11:49:56.668Z,59.95
2016-03-02T11:50:56.671Z,59.19
2016-03-02T11:51:56.705Z,59.19
2016-03-02T11:52:56.740Z,59
2016-03-02T11:53:56.757Z,59.09
2016-03-02T11:54:56.760Z,59.28
2016-03-02T11:55:56.778Z,59
2016-03-02T11:56:56.797Z,59.19
2016-03-02T11:57:56.800Z,59.09
2016-03-02T11:58:56.833Z,59.09
2016-03-02T11:59:56.883Z,59.38
2016-03-02T12:00:56.964Z,58.91
2016-03-02T12:01:56.903Z,59.19
2016-03-02T12:02:56.907Z,59.28
2016-03-02T12:03:56.941Z,58.72
2016-03-02T12:04:56.943Z,58.91
2016-03-02T12:05:56.973Z,58.91
2016-03-02T12:06:56.976Z,59.09
2016-03-02T12:07:57.010Z,59.38
2016-03-02T12:08:57.029Z,59.09
2016-03-02T12:09:57.047Z,59
2016-03-02T12:10:57.065Z,59.09
2016-03-02T12:11:57.084Z,59.19
2016-03-02T12:12:57.101Z,58.91
2016-03-02T12:13:57.120Z,59.19
2016-03-02T12:14:57.138Z,59.19
2016-03-02T12:15:57.157Z,59.48
2016-03-02T12:16:57.175Z,59
2016-03-02T12:17:57.209Z,58.81
2016-03-02T12:18:57.211Z,59.09
2016-03-02T12:19:57.230Z,59.19
2016-03-02T12:20:57.264Z,59.19
2016-03-02T12:21:57.267Z,59.09
2016-03-02T12:22:57.300Z,59.19
2016-03-02T12:23:57.303Z,58.91
2016-03-02T12:24:57.447Z,59.57
2016-03-02T12:25:57.433Z,59.19
2016-03-02T12:26:57.452Z,59.76
2016-03-02T12:27:57.391Z,59.48
2016-03-02T12:28:57.410Z,59.35
2016-03-02T12:29:57.429Z,59.45
2016-03-02T12:30:57.446Z,59.54
2016-03-02T12:31:57.465Z,60.02
2016-03-02T12:32:57.484Z,60.02
2016-03-02T12:33:57.502Z,59.92
2016-03-02T12:34:57.676Z,59.64
2016-03-02T12:35:57.539Z,59.74
2016-03-02T12:36:57.790Z,59.74
2016-03-02T12:37:57.576Z,60.21
2016-03-02T12:38:57.594Z,60.02
2016-03-02T12:39:57.612Z,59.74
2016-03-02T12:40:57.630Z,59.74
2016-03-02T12:41:57.664Z,60.3
2016-03-02T12:42:57.667Z,60.02
2016-03-02T12:43:57.764Z,60.4
2016-03-02T12:44:57.703Z,60.3
2016-03-02T12:45:57.722Z,60.11
2016-03-02T12:46:57.756Z,60.21
2016-03-02T12:47:57.775Z,60.21
2016-03-02T12:48:57.792Z,59.74
2016-03-02T12:49:57.811Z,59.92
2016-03-02T12:50:57.829Z,60.21
2016-03-02T12:51:57.848Z,60.21
2016-03-02T12:52:57.866Z,60.02
2016-03-02T12:53:57.883Z,59.74
2016-03-02T12:54:57.902Z,59.83
2016-03-02T12:55:57.937Z,60.3